Time;durP1;ratioP1;P1;durP2;ratioP2;P2;SDS_P1;SDS_P2;PMS_P1;PMS_P2;Temp;Humidity;BMP_temperature;BMP_pressure;BME280_temperature;BME280_humidity;BME280_pressure;Samples;Min_cycle;Max_cycle;Signal;HPM_P1;HPM_P2
2022/01/29 00:01:57;;;;;;;24.07;14.78;;;;;;;11.48;52.76;99495.55;1721718;81;21026;-69
2022/01/29 00:04:23;;;;;;;20.75;13.03;;;;;;;11.59;52.33;99495.37;1726492;81;21187;-58
2022/01/29 00:06:50;;;;;;;24.52;14.80;;;;;;;11.62;52.20;99493.15;1728754;82;21909;-59
2022/01/29 00:09:16;;;;;;;21.73;12.88;;;;;;;11.78;51.55;99490.58;1728563;82;21013;-70
2022/01/29 00:11:43;;;;;;;21.00;13.22;;;;;;;11.74;51.65;99495.09;1728691;81;21490;-57
2022/01/29 00:14:10;;;;;;;20.37;13.88;;;;;;;11.74;51.70;99493.80;1728124;82;20951;-71
2022/01/29 00:16:38;;;;;;;21.57;13.65;;;;;;;11.56;51.88;99493.20;1728854;82;21166;-58
2022/01/29 00:19:04;;;;;;;21.07;14.35;;;;;;;11.55;52.30;99491.58;1728809;81;21044;-58
2022/01/29 00:21:31;;;;;;;21.77;13.65;;;;;;;11.69;51.69;99484.78;1728587;82;21010;-61
2022/01/29 00:23:57;;;;;;;23.75;14.53;;;;;;;11.98;50.97;99485.77;1729278;81;21076;-58
2022/01/29 00:26:26;;;;;;;20.55;13.62;;;;;;;11.90;51.02;99483.70;1728317;82;21659;-57
2022/01/29 00:28:52;;;;;;;20.70;13.40;;;;;;;11.43;51.26;99485.70;1728909;82;21121;-57
2022/01/29 00:31:19;;;;;;;21.05;13.90;;;;;;;11.20;53.00;99472.34;1728097;81;21447;-63
2022/01/29 00:33:45;;;;;;;22.30;14.13;;;;;;;11.86;51.62;99469.47;1728163;81;20997;-59
2022/01/29 00:36:12;;;;;;;22.25;14.43;;;;;;;11.59;51.83;99466.66;1727843;82;20988;-58
2022/01/29 00:38:39;;;;;;;22.40;13.45;;;;;;;11.73;51.71;99466.89;1729538;81;21087;-57
2022/01/29 00:41:06;;;;;;;22.48;14.40;;;;;;;11.79;50.88;99474.41;1728237;82;21158;-59
2022/01/29 00:43:34;;;;;;;20.00;13.32;;;;;;;11.72;51.43;99470.52;1728289;82;20925;-71
2022/01/29 00:46:00;;;;;;;23.42;15.10;;;;;;;11.59;51.67;99464.05;1727913;81;20914;-58
2022/01/29 00:48:26;;;;;;;22.93;14.10;;;;;;;11.73;51.76;99459.56;1727950;82;21004;-58
2022/01/29 00:50:53;;;;;;;23.10;13.95;;;;;;;11.76;51.62;99457.34;1728807;81;21052;-57
2022/01/29 00:53:20;;;;;;;22.90;14.10;;;;;;;11.69;51.67;99456.06;1728919;81;21155;-57
2022/01/29 00:55:47;;;;;;;21.55;13.28;;;;;;;11.68;51.94;99447.15;1727036;81;21033;-58
2022/01/29 00:58:14;;;;;;;23.60;14.03;;;;;;;11.56;52.02;99444.91;1727421;82;21060;-64
2022/01/29 01:00:41;;;;;;;23.90;14.28;;;;;;;11.33;52.69;99445.42;1728824;82;22368;-57
2022/01/29 01:03:07;;;;;;;23.45;14.58;;;;;;;11.30;53.05;99442.72;1728254;81;20969;-58
2022/01/29 01:05:34;;;;;;;23.42;13.72;;;;;;;11.32;53.40;99449.02;1721224;82;21118;-57
2022/01/29 01:08:00;;;;;;;24.45;14.75;;;;;;;11.13;53.67;99448.89;1720771;82;21008;-70
2022/01/29 01:10:27;;;;;;;24.00;15.72;;;;;;;10.81;54.19;99456.32;1719850;82;21027;-57
2022/01/29 01:12:53;;;;;;;23.15;14.83;;;;;;;10.78;55.82;99449.70;1721105;82;21802;-58
2022/01/29 01:15:20;;;;;;;20.08;13.88;;;;;;;11.12;55.42;99447.80;1721126;82;21403;-58
2022/01/29 01:17:46;;;;;;;22.58;14.75;;;;;;;10.80;55.96;99452.12;1721050;82;21137;-56
2022/01/29 01:20:13;;;;;;;23.75;14.38;;;;;;;10.45;57.40;99453.64;1720591;82;21019;-61
2022/01/29 01:22:39;;;;;;;22.02;13.32;;;;;;;10.65;57.55;99457.05;1720184;82;22090;-56
2022/01/29 01:25:08;;;;;;;23.90;14.18;;;;;;;10.29;59.73;99454.86;1720832;82;22440;-57
2022/01/29 01:27:35;;;;;;;23.45;14.23;;;;;;;10.34;59.87;99447.27;1721522;81;21070;-57
2022/01/29 01:30:03;;;;;;;21.87;14.05;;;;;;;10.84;58.79;99444.98;1720870;82;22834;-56
2022/01/29 01:32:31;;;;;;;22.22;14.87;;;;;;;10.96;56.71;99436.02;1720522;81;21130;-65
2022/01/29 01:35:07;;;;;;;21.55;14.03;;;;;;;10.95;57.01;99447.47;1720900;82;21018;-57
2022/01/29 01:37:38;;;;;;;23.32;14.68;;;;;;;10.54;58.17;99444.64;1719704;81;21493;-57
2022/01/29 01:40:00;;;;;;;23.00;14.93;;;;;;;10.68;58.01;99438.88;1720782;81;21118;-57
2022/01/29 01:42:27;;;;;;;25.55;15.35;;;;;;;10.65;58.45;99435.41;1720284;81;21147;-66
2022/01/29 01:44:55;;;;;;;25.43;15.55;;;;;;;10.74;58.34;99432.07;1720188;81;20998;-58
2022/01/29 01:47:21;;;;;;;21.62;13.72;;;;;;;11.00;57.17;99426.78;1721348;81;20999;-57
2022/01/29 01:49:48;;;;;;;21.90;13.93;;;;;;;10.96;57.08;99429.00;1721037;82;20975;-57
2022/01/29 01:52:14;;;;;;;21.95;14.55;;;;;;;10.89;57.10;99431.33;1687544;84;21051;-63
2022/01/29 01:54:42;;;;;;;21.97;13.25;;;;;;;10.74;57.35;99428.95;1696372;82;21140;-58
2022/01/29 01:57:09;;;;;;;21.52;14.63;;;;;;;10.99;57.40;99433.01;1721174;81;20927;-57
2022/01/29 01:59:36;;;;;;;22.37;14.47;;;;;;;11.18;56.32;99438.66;1721102;82;21007;-57
2022/01/29 02:02:03;;;;;;;23.07;14.15;;;;;;;11.07;56.67;99434.59;1719826;81;21143;-66
2022/01/29 02:04:33;;;;;;;24.15;15.45;;;;;;;11.22;56.14;99435.13;1723548;81;21062;-65
2022/01/29 02:07:04;;;;;;;20.68;14.23;;;;;;;11.20;55.84;99431.91;1708714;82;21612;-58
2022/01/29 02:09:32;;;;;;;;;;;;;;;11.28;55.60;99430.88;1711897;82;21050;-57
2022/01/29 02:12:02;;;;;;;20.30;13.98;;;;;;;11.28;55.84;99427.77;1708584;83;20137;-57
2022/01/29 02:14:32;;;;;;;20.17;13.48;;;;;;;10.81;56.91;99424.53;1707639;83;30062;-68
2022/01/29 02:17:00;;;;;;;22.00;13.45;;;;;;;11.07;57.52;99428.07;1709094;82;21482;-56
2022/01/29 02:19:26;;;;;;;17.10;12.20;;;;;;;11.11;56.62;99431.86;1709591;82;21131;-55
2022/01/29 02:21:56;;;;;;;19.80;13.15;;;;;;;10.88;57.99;99428.43;1708536;83;20959;-55
2022/01/29 02:24:24;;;;;;;16.62;11.57;;;;;;;10.83;57.70;99425.61;1708131;82;21074;-65
2022/01/29 02:26:50;;;;;;;18.42;12.73;;;;;;;11.20;56.86;99426.70;1707999;83;21125;-56
2022/01/29 02:29:18;;;;;;;18.98;11.48;;;;;;;11.49;55.51;99425.36;1708532;83;21646;-58
2022/01/29 02:31:49;;;;;;;18.27;12.40;;;;;;;11.17;55.86;99425.80;1708452;83;21782;-57
2022/01/29 02:34:17;;;;;;;16.73;11.10;;;;;;;11.35;55.60;99424.63;1725681;82;21002;-67
2022/01/29 02:36:44;;;;;;;16.45;11.08;;;;;;;11.32;56.02;99425.54;1708924;82;21433;-67
2022/01/29 02:39:12;;;;;;;16.40;10.98;;;;;;;11.49;55.24;99419.34;1708416;83;20972;-56
2022/01/29 02:41:43;;;;;;;15.32;10.50;;;;;;;11.59;54.75;99419.67;1708662;83;20948;-56
2022/01/29 02:44:09;;;;;;;15.45;10.70;;;;;;;11.67;54.31;99424.67;1708245;83;21824;-66
2022/01/29 02:46:54;;;;;;;15.35;10.53;;;;;;;11.54;54.51;99420.81;1707590;83;20964;-62
2022/01/29 02:49:23;;;;;;;14.07;9.83;;;;;;;11.64;54.44;99419.87;1709644;82;21544;-56
2022/01/29 02:51:57;;;;;;;14.38;10.30;;;;;;;11.74;53.79;99414.95;1707620;83;20956;-56
2022/01/29 02:54:25;;;;;;;14.98;10.13;;;;;;;11.80;53.72;99419.34;1725834;83;21587;-63
2022/01/29 02:56:52;;;;;;;14.73;10.50;;;;;;;11.92;53.15;99416.89;1727141;81;22788;-56
2022/01/29 02:59:18;;;;;;;15.15;10.23;;;;;;;11.90;53.24;99422.33;1709190;82;21505;-57
2022/01/29 03:01:45;;;;;;;15.08;10.25;;;;;;;11.70;53.38;99422.92;1727171;81;21030;-56
2022/01/29 03:04:11;;;;;;;13.75;9.65;;;;;;;11.78;53.33;99418.78;1709758;82;21036;-58
2022/01/29 03:06:38;;;;;;;13.53;9.28;;;;;;;11.75;53.31;99421.80;1687260;84;21125;-57
2022/01/29 03:09:05;;;;;;;12.73;9.13;;;;;;;12.00;52.91;99421.05;1695619;83;21800;-59
2022/01/29 03:11:33;;;;;;;12.93;8.88;;;;;;;11.82;52.97;99422.56;1658589;85;21011;-57
2022/01/29 03:14:00;;;;;;;14.60;9.58;;;;;;;11.37;54.09;99422.62;1695807;82;21062;-66
2022/01/29 03:16:28;;;;;;;14.80;9.60;;;;;;;11.24;55.58;99423.97;1658251;86;21055;-67
2022/01/29 03:18:55;;;;;;;15.65;10.38;;;;;;;11.36;55.42;99423.61;1696369;82;21946;-57
2022/01/29 03:21:21;;;;;;;13.38;8.83;;;;;;;11.29;55.54;99415.52;1721202;81;21145;-56
2022/01/29 03:23:48;;;;;;;12.15;8.55;;;;;;;11.43;55.61;99421.77;1720864;81;20997;-57
2022/01/29 03:26:14;;;;;;;14.95;9.78;;;;;;;11.38;55.37;99421.60;1720952;82;21079;-67
2022/01/29 03:28:40;;;;;;;13.50;9.40;;;;;;;11.58;54.85;99418.08;1688121;83;21565;-57
2022/01/29 03:31:07;;;;;;;14.55;9.90;;;;;;;11.28;55.76;99419.94;1688700;83;21008;-57
2022/01/29 03:33:34;;;;;;;14.10;9.75;;;;;;;11.31;55.95;99418.22;1695714;82;21158;-59
2022/01/29 03:36:01;;;;;;;14.15;9.25;;;;;;;11.32;55.58;99415.11;1689144;81;21009;-66
2022/01/29 03:38:28;;;;;;;14.68;9.83;;;;;;;11.26;55.85;99410.23;1687599;83;20926;-67
2022/01/29 03:40:57;;;;;;;13.90;10.35;;;;;;;11.27;55.80;99414.94;1695442;83;21181;-57
2022/01/29 03:43:28;;;;;;;15.08;9.58;;;;;;;11.13;56.30;99429.33;1721106;82;21065;-57
2022/01/29 03:45:52;;;;;;;14.20;10.32;;;;;;;11.09;56.33;99423.43;1720163;81;21187;-57
2022/01/29 03:48:19;;;;;;;14.40;10.05;;;;;;;11.28;56.30;99418.63;1720031;82;21417;-59
2022/01/29 03:50:45;;;;;;;15.45;10.28;;;;;;;11.29;56.21;99416.34;1687358;84;21136;-58
2022/01/29 03:53:12;;;;;;;18.25;12.20;;;;;;;11.19;56.26;99427.20;1695570;83;20974;-57
2022/01/29 03:55:38;;;;;;;21.25;14.10;;;;;;;10.99;56.79;99427.80;1721114;82;21047;-57
2022/01/29 03:58:05;;;;;;;18.02;12.53;;;;;;;11.00;57.48;99427.29;1721092;81;21946;-58
2022/01/29 04:00:31;;;;;;;16.30;11.38;;;;;;;11.16;56.69;99439.86;1701523;79;21170;-59
2022/01/29 04:02:58;;;;;;;23.10;14.45;;;;;;;11.02;57.36;99430.47;1772803;80;21047;-57
2022/01/29 04:05:28;;;;;;;33.35;18.67;;;;;;;10.93;57.60;99443.74;1774116;80;21605;-57
2022/01/29 04:07:55;;;;;;;31.73;18.52;;;;;;;11.25;56.90;99442.55;1773563;80;21063;-57
2022/01/29 04:10:23;;;;;;;24.90;16.85;;;;;;;11.26;56.24;99446.75;1769907;80;22157;-57
2022/01/29 04:12:52;;;;;;;25.90;17.85;;;;;;;11.10;56.54;99442.80;1771030;80;21059;-66
2022/01/29 04:15:18;;;;;;;18.50;12.78;;;;;;;11.24;56.54;99443.53;1774413;80;21037;-56
2022/01/29 04:17:45;;;;;;;19.20;12.75;;;;;;;11.26;56.45;99439.44;1773811;80;21075;-57
2022/01/29 04:20:12;;;;;;;17.87;12.60;;;;;;;11.10;56.80;99441.98;1774334;80;21606;-57
2022/01/29 04:22:38;;;;;;;18.87;13.28;;;;;;;11.02;56.93;99440.40;1773384;80;21120;-65
2022/01/29 04:25:07;;;;;;;17.12;12.00;;;;;;;11.41;55.69;99434.75;1767403;80;21332;-64
2022/01/29 04:27:41;;;;;;;18.48;13.03;;;;;;;11.41;55.32;99440.77;1747688;80;21492;-56
2022/01/29 04:30:11;;;;;;;20.83;13.87;;;;;;;11.52;54.84;99438.52;1738662;80;21474;-56
2022/01/29 04:35:08;;;;;;;19.95;13.35;;;;;;;11.45;55.11;99432.02;1763941;80;21945;-57
2022/01/29 04:37:35;;;;;;;20.95;14.07;;;;;;;11.55;54.55;99429.73;1774838;80;20892;-59
2022/01/29 04:40:01;;;;;;;18.52;13.55;;;;;;;11.74;53.98;99431.93;1734608;82;20928;-56
2022/01/29 04:42:27;;;;;;;19.32;13.40;;;;;;;11.80;53.57;99427.19;1774773;80;20996;-56
2022/01/29 04:44:54;;;;;;;26.77;17.70;;;;;;;11.65;53.83;99431.90;1769039;80;21162;-57
2022/01/29 04:47:20;;;;;;;26.80;17.65;;;;;;;11.60;53.89;99428.62;1775106;80;22445;-56
2022/01/29 04:49:47;;;;;;;33.83;21.02;;;;;;;11.77;53.52;99434.63;1774081;80;20972;-55
2022/01/29 04:52:13;;;;;;;23.75;16.37;;;;;;;11.68;53.44;99431.48;1774420;80;21004;-56
2022/01/29 04:54:40;;;;;;;20.25;14.23;;;;;;;11.43;54.11;99439.23;1774326;80;21082;-65
2022/01/29 04:57:06;;;;;;;30.55;18.85;;;;;;;11.44;54.21;99441.66;1773338;80;20932;-63
2022/01/29 04:59:33;;;;;;;25.37;16.73;;;;;;;11.51;54.39;99448.12;1774552;80;22193;-60
2022/01/29 05:02:00;;;;;;;25.62;16.57;;;;;;;11.35;54.79;99450.72;1775788;80;20935;-56
2022/01/29 05:04:27;;;;;;;23.40;16.10;;;;;;;11.57;54.26;99459.05;1774633;80;20936;-57
2022/01/29 05:06:53;;;;;;;25.72;15.85;;;;;;;11.73;53.78;99457.75;1776339;80;20951;-65
2022/01/29 05:09:19;;;;;;;23.38;16.73;;;;;;;11.92;52.97;99457.36;1763559;80;20844;-58
2022/01/29 05:11:49;;;;;;;24.02;15.68;;;;;;;11.73;53.16;99451.22;1776717;80;21126;-57
2022/01/29 05:14:35;;;;;;;27.42;16.95;;;;;;;11.84;53.07;99454.50;1776862;80;20936;-56
2022/01/29 05:27:37;;;;;;;25.27;16.30;;;;;;;12.18;52.23;99470.75;1774743;80;20936;-58
2022/01/29 05:30:05;;;;;;;26.37;16.95;;;;;;;12.03;52.17;99468.44;1776396;80;21019;-65
2022/01/29 05:32:33;;;;;;;28.35;18.85;;;;;;;12.03;52.06;99461.91;1776865;80;21018;-57
2022/01/29 05:35:00;;;;;;;29.10;18.05;;;;;;;11.87;52.23;99467.14;1776446;80;21114;-56
2022/01/29 05:37:28;;;;;;;27.13;17.17;;;;;;;11.83;52.57;99466.45;1776934;80;20991;-57
2022/01/29 05:39:55;;;;;;;30.02;18.37;;;;;;;11.85;52.76;99473.58;1775798;80;21655;-61
2022/01/29 05:42:21;;;;;;;30.15;18.15;;;;;;;12.04;52.29;99469.23;1776707;80;21065;-64
2022/01/29 05:44:47;;;;;;;36.60;22.35;;;;;;;12.27;51.25;99483.03;1775507;79;21075;-57
2022/01/29 05:47:14;;;;;;;34.55;21.35;;;;;;;12.24;51.31;99480.88;1776964;80;20988;-56
2022/01/29 05:49:40;;;;;;;25.97;17.40;;;;;;;12.17;51.36;99473.88;1776100;79;22155;-58
2022/01/29 05:52:07;;;;;;;30.00;18.48;;;;;;;12.26;51.00;99481.45;1776217;80;20916;-58
2022/01/29 05:54:33;;;;;;;29.95;20.48;;;;;;;12.44;50.55;99483.33;1776093;80;21010;-58
2022/01/29 05:57:00;;;;;;;29.70;17.77;;;;;;;12.49;50.26;99476.42;1773541;80;21067;-57
2022/01/29 05:59:26;;;;;;;28.23;17.50;;;;;;;12.36;50.63;99483.09;1775122;79;21069;-58
2022/01/29 06:01:53;;;;;;;28.05;17.35;;;;;;;12.48;50.39;99477.96;1706818;83;21798;-62
2022/01/29 06:04:20;;;;;;;28.98;18.15;;;;;;;12.56;49.92;99482.40;1739549;81;21024;-65
2022/01/29 06:06:46;;;;;;;29.60;20.80;;;;;;;12.10;50.82;99480.95;1705562;83;21056;-59
2022/01/29 06:09:13;;;;;;;29.63;18.73;;;;;;;12.04;51.05;99486.22;1750264;81;22742;-59
2022/01/29 06:11:39;;;;;;;27.95;18.35;;;;;;;11.80;51.77;99492.46;1708432;82;21071;-67
2022/01/29 06:14:06;;;;;;;30.77;20.32;;;;;;;12.01;51.59;99492.69;1743928;81;21094;-60
2022/01/29 06:16:33;;;;;;;27.45;18.10;;;;;;;12.16;51.05;99489.27;1708729;82;21067;-67
2022/01/29 06:19:01;;;;;;;27.87;18.90;;;;;;;12.28;50.75;99493.80;1701975;82;21022;-65
2022/01/29 06:21:28;;;;;;;29.77;19.10;;;;;;;12.45;50.15;99490.94;1741048;81;21013;-61
2022/01/29 06:23:54;;;;;;;29.45;19.32;;;;;;;12.55;49.90;99491.78;1742870;81;20975;-59
2022/01/29 06:26:21;;;;;;;29.57;18.45;;;;;;;11.79;50.99;99490.87;1738767;81;21214;-61
2022/01/29 06:28:48;;;;;;;27.85;17.70;;;;;;;12.25;50.40;99485.88;1735316;81;20890;-67
2022/01/29 06:31:16;;;;;;;27.10;16.15;;;;;;;12.03;50.87;99483.31;1738283;81;20971;-61
2022/01/29 06:33:42;;;;;;;31.23;18.17;;;;;;;11.83;51.25;99495.17;1740745;81;21052;-66
2022/01/29 06:36:10;;;;;;;28.05;18.95;;;;;;;11.90;51.06;99487.62;1740309;81;20948;-61
2022/01/29 06:38:36;;;;;;;27.48;17.52;;;;;;;11.89;51.25;99493.86;1741234;81;21521;-62
2022/01/29 06:41:03;;;;;;;27.13;17.07;;;;;;;11.97;50.92;99494.12;1741432;81;21470;-61
2022/01/29 06:43:30;;;;;;;29.32;18.55;;;;;;;12.00;50.55;99487.66;1695396;83;21048;-60
2022/01/29 06:45:56;;;;;;;26.37;17.25;;;;;;;12.02;50.50;99493.48;1724501;81;21083;-62
2022/01/29 06:48:23;;;;;;;27.55;17.65;;;;;;;12.14;50.42;99497.01;1739688;81;21653;-61
2022/01/29 06:50:50;;;;;;;29.25;17.40;;;;;;;12.23;50.23;99499.64;1752950;80;21140;-60
2022/01/29 06:53:16;;;;;;;24.10;16.57;;;;;;;11.96;50.50;99488.58;1752028;80;21095;-60
2022/01/29 06:55:43;;;;;;;28.20;17.82;;;;;;;11.82;50.73;99492.23;1748401;80;20984;-60
2022/01/29 06:58:11;;;;;;;22.30;15.72;;;;;;;11.83;50.84;99496.47;1751679;79;20967;-67
2022/01/29 07:00:38;;;;;;;25.08;17.05;;;;;;;11.83;50.74;99490.77;1743741;80;21392;-66
2022/01/29 07:03:04;;;;;;;24.92;17.00;;;;;;;11.67;51.09;99489.94;1749618;80;21106;-63
2022/01/29 07:05:31;;;;;;;25.48;16.82;;;;;;;12.14;50.21;99487.87;1746520;80;21016;-60
2022/01/29 07:07:57;;;;;;;22.95;15.23;;;;;;;12.03;50.12;99484.63;1707790;82;21672;-60
2022/01/29 07:10:24;;;;;;;23.67;16.07;;;;;;;12.13;50.10;99486.27;1765875;79;21074;-64
2022/01/29 07:12:51;;;;;;;23.25;15.95;;;;;;;12.15;50.01;99488.16;1736448;81;21347;-64
2022/01/29 07:15:17;;;;;;;27.02;17.62;;;;;;;12.14;50.10;99491.78;1769881;79;21748;-59
2022/01/29 07:17:44;;;;;;;24.50;16.67;;;;;;;12.32;49.76;99491.86;1769135;79;20990;-59
2022/01/29 07:20:11;;;;;;;26.33;16.70;;;;;;;12.24;49.86;99492.63;1770461;80;20936;-59
2022/01/29 07:22:39;;;;;;;25.43;16.95;;;;;;;12.10;50.09;99486.69;1763258;79;21457;-60
2022/01/29 07:25:08;;;;;;;23.65;15.45;;;;;;;12.13;50.19;99487.58;1764220;79;21426;-61
2022/01/29 07:27:36;;;;;;;25.00;16.32;;;;;;;12.19;50.01;99495.86;1744697;81;20964;-59
2022/01/29 07:30:04;;;;;;;24.43;17.07;;;;;;;12.29;49.75;99490.17;1763479;79;20996;-60
2022/01/29 07:32:31;;;;;;;25.92;16.15;;;;;;;12.28;49.76;99491.98;1765260;80;21042;-66
2022/01/29 07:34:58;;;;;;;24.27;15.25;;;;;;;12.29;49.59;99492.78;1769680;79;21084;-60
2022/01/29 07:37:25;;;;;;;25.68;16.97;;;;;;;12.29;49.52;99494.89;1732098;81;21079;-61
2022/01/29 07:39:51;;;;;;;23.22;15.45;;;;;;;12.14;49.58;99496.50;1760607;79;21149;-59
2022/01/29 07:42:18;;;;;;;23.62;15.72;;;;;;;12.28;49.56;99490.69;1767050;78;21533;-60
2022/01/29 07:44:45;;;;;;;24.37;16.25;;;;;;;12.29;49.62;99503.23;1764118;79;20995;-66
2022/01/29 07:47:11;;;;;;;23.12;15.90;;;;;;;12.42;49.35;99496.59;1742029;81;20956;-59
2022/01/29 07:49:38;;;;;;;22.55;15.32;;;;;;;12.29;49.14;99506.65;1704688;82;21135;-59
2022/01/29 07:52:05;;;;;;;23.47;16.37;;;;;;;12.20;49.54;99501.88;1763529;79;21114;-59
2022/01/29 07:54:32;;;;;;;24.07;16.70;;;;;;;12.48;48.93;99504.89;1738877;80;21471;-59
2022/01/29 07:56:59;;;;;;;24.50;16.27;;;;;;;12.46;48.93;99502.19;1757959;80;21033;-65
2022/01/29 07:59:26;;;;;;;24.12;16.00;;;;;;;12.53;48.83;99504.25;1772772;80;21086;-61
2022/01/29 08:01:54;;;;;;;24.18;16.05;;;;;;;12.38;49.04;99499.34;1753635;80;21947;-59
2022/01/29 08:04:24;;;;;;;25.50;16.32;;;;;;;12.42;48.70;99500.51;1758996;80;21058;-57
2022/01/29 08:06:51;;;;;;;24.47;16.45;;;;;;;12.46;48.83;99500.88;1758269;80;21227;-65
2022/01/29 08:09:18;;;;;;;23.65;16.62;;;;;;;12.61;48.48;99507.89;1759488;80;21078;-58
2022/01/29 08:11:45;;;;;;;24.65;16.77;;;;;;;12.75;48.23;99516.44;1758532;80;21150;-59
2022/01/29 08:14:12;;;;;;;25.97;17.35;;;;;;;12.70;48.17;99520.21;1759579;81;20960;-59
2022/01/29 08:16:38;;;;;;;23.52;16.45;;;;;;;12.83;47.79;99516.95;1756050;80;21108;-60
2022/01/29 08:19:06;;;;;;;28.70;17.90;;;;;;;12.60;48.09;99520.69;1759898;81;21256;-61
2022/01/29 08:21:32;;;;;;;25.85;17.65;;;;;;;12.73;47.96;99524.50;1760163;81;21008;-61
2022/01/29 08:23:59;;;;;;;26.65;17.73;;;;;;;12.63;48.22;99517.14;1758992;81;21474;-60
2022/01/29 08:26:27;;;;;;;27.40;18.25;;;;;;;12.57;48.31;99514.56;1759689;80;21036;-62
2022/01/29 08:28:54;;;;;;;25.40;17.52;;;;;;;12.66;48.21;99518.02;1754916;81;22167;-60
2022/01/29 08:31:21;;;;;;;27.15;17.92;;;;;;;12.81;48.03;99517.69;1758591;80;21059;-64
2022/01/29 08:33:48;;;;;;;29.55;19.55;;;;;;;12.77;48.12;99526.98;1759237;81;21014;-59
2022/01/29 08:36:16;;;;;;;24.95;17.62;;;;;;;12.79;48.02;99522.83;1759630;81;20963;-60
2022/01/29 08:38:43;;;;;;;27.45;18.98;;;;;;;12.79;48.05;99520.22;1758602;81;21004;-62
2022/01/29 08:41:10;;;;;;;25.80;17.67;;;;;;;12.59;48.39;99524.32;1758385;81;22591;-65
2022/01/29 08:43:36;;;;;;;25.05;16.93;;;;;;;12.71;48.25;99523.11;1755917;81;20948;-60
2022/01/29 08:46:05;;;;;;;24.55;16.85;;;;;;;12.64;48.28;99521.34;1753224;81;20976;-61
2022/01/29 08:48:32;;;;;;;27.87;18.12;;;;;;;12.59;48.58;99526.94;1759774;81;21466;-60
2022/01/29 08:50:59;;;;;;;26.10;16.87;;;;;;;12.74;48.29;99524.79;1758369;81;20924;-60
2022/01/29 08:53:26;;;;;;;23.73;16.35;;;;;;;12.83;48.01;99524.00;1744469;81;21090;-61
2022/01/29 08:55:52;;;;;;;28.67;18.40;;;;;;;12.95;47.79;99521.47;1702222;82;21034;-59
2022/01/29 08:58:19;;;;;;;26.00;17.80;;;;;;;13.02;47.57;99508.62;1715125;81;21083;-59
2022/01/29 09:00:46;;;;;;;26.23;16.82;;;;;;;12.85;47.94;99513.63;1712060;82;21515;-59
2022/01/29 09:03:14;;;;;;;26.00;17.20;;;;;;;12.83;48.09;99514.33;1759173;81;20976;-58
2022/01/29 09:05:45;;;;;;;26.60;17.35;;;;;;;12.64;48.68;99513.50;1758354;81;22358;-58
2022/01/29 09:08:13;;;;;;;23.20;16.85;;;;;;;13.01;47.75;99511.46;1759983;80;21551;-59
2022/01/29 09:10:40;;;;;;;24.12;16.70;;;;;;;12.91;47.95;99512.74;1758880;81;20932;-59
2022/01/29 09:13:07;;;;;;;23.40;15.93;;;;;;;12.84;48.41;99512.03;1758909;81;20976;-58
2022/01/29 09:15:33;;;;;;;25.95;16.80;;;;;;;13.32;47.83;99510.03;1759164;80;21152;-59
2022/01/29 09:18:01;;;;;;;25.17;16.77;;;;;;;13.87;46.84;99511.78;1758886;81;21320;-59
2022/01/29 09:20:28;;;;;;;20.45;15.08;;;;;;;14.03;46.11;99503.80;1753982;81;21051;-61
2022/01/29 09:22:55;;;;;;;23.50;15.60;;;;;;;13.99;45.99;99498.72;1758910;81;21067;-65
2022/01/29 09:25:21;;;;;;;22.05;15.58;;;;;;;14.01;45.72;99499.28;1759986;81;21109;-64
2022/01/29 09:27:48;;;;;;;23.05;15.70;;;;;;;13.88;45.84;99506.31;1757338;81;21034;-59
2022/01/29 09:30:17;;;;;;;22.73;15.45;;;;;;;13.95;45.71;99505.43;1757133;81;21114;-58
2022/01/29 09:32:44;;;;;;;22.65;15.63;;;;;;;13.62;46.18;99504.05;1758063;81;20995;-63
2022/01/29 09:35:11;;;;;;;20.35;13.98;;;;;;;13.59;46.58;99510.52;1758793;80;21110;-59
2022/01/29 09:37:38;;;;;;;21.17;14.78;;;;;;;13.54;46.61;99502.53;1758153;81;20999;-60
2022/01/29 09:40:07;;;;;;;21.00;14.63;;;;;;;13.37;46.78;99511.51;1759529;81;22366;-58
2022/01/29 09:42:35;;;;;;;18.00;12.85;;;;;;;13.73;46.26;99506.42;1759238;80;21775;-64
2022/01/29 09:45:03;;;;;;;21.87;14.87;;;;;;;13.63;46.23;99499.88;1758083;81;21032;-58
2022/01/29 09:47:31;;;;;;;20.45;14.00;;;;;;;13.84;46.10;99502.54;1758863;81;21119;-60
2022/01/29 09:49:59;;;;;;;23.80;15.35;;;;;;;13.93;45.75;99502.22;1754988;81;21048;-59
2022/01/29 09:52:25;;;;;;;20.70;14.70;;;;;;;13.91;45.72;99509.01;1759272;80;21009;-60
2022/01/29 09:54:51;;;;;;;20.65;14.87;;;;;;;13.88;45.74;99516.80;1757407;81;21081;-59
2022/01/29 09:57:18;;;;;;;23.55;15.93;;;;;;;13.62;46.07;99514.52;1759534;80;21274;-60
2022/01/29 09:59:46;;;;;;;22.40;15.75;;;;;;;12.80;47.79;99525.73;1758456;81;20979;-60
2022/01/29 10:02:15;;;;;;;20.68;14.90;;;;;;;12.76;48.21;99524.56;1759588;81;21054;-59
2022/01/29 10:04:52;;;;;;;20.35;14.87;;;;;;;12.89;48.16;99523.95;1758519;81;21066;-65
2022/01/29 10:07:28;;;;;;;21.97;14.58;;;;;;;12.85;48.04;99525.39;1759709;81;21127;-62
2022/01/29 10:09:57;;;;;;;21.35;15.43;;;;;;;12.95;47.96;99524.88;1759121;81;21109;-59
2022/01/29 10:12:30;;;;;;;130.63;78.00;;;;;;;13.04;47.81;99522.81;1760813;81;21564;-65
2022/01/29 10:15:06;;;;;;;74.47;55.08;;;;;;;12.80;48.11;99517.38;1758401;81;21099;-64
2022/01/29 10:17:53;;;;;;;87.62;64.35;;;;;;;12.54;48.56;99522.83;1746568;81;22279;-58
2022/01/29 10:20:27;;;;;;;33.00;27.73;;;;;;;11.74;49.76;99531.66;1759845;81;21649;-59
2022/01/29 10:23:00;;;;;;;26.85;20.37;;;;;;;11.64;51.55;99533.42;1743493;81;21051;-60
2022/01/29 10:25:32;;;;;;;26.00;20.30;;;;;;;11.66;51.98;99525.66;1758865;80;20996;-58
2022/01/29 10:28:18;;;;;;;22.55;16.30;;;;;;;12.50;50.36;99530.81;1758899;81;21014;-60
2022/01/29 10:30:55;;;;;;;28.67;22.67;;;;;;;12.43;49.95;99527.47;1759248;81;21230;-58
2022/01/29 10:33:36;;;;;;;28.17;22.82;;;;;;;12.87;49.22;99531.70;1759488;80;21181;-63
2022/01/29 10:36:12;;;;;;;24.52;20.02;;;;;;;13.22;48.50;99529.84;1732914;81;20907;-58
2022/01/29 10:38:47;;;;;;;32.23;21.12;;;;;;;13.05;48.34;99527.81;1702925;82;21039;-58
2022/01/29 10:41:25;;;;;;;30.23;22.55;;;;;;;13.22;48.34;99531.98;1716710;81;21551;-59
2022/01/29 10:44:11;;;;;;;35.05;22.02;;;;;;;12.91;48.85;99527.64;1756070;81;21055;-59
2022/01/29 10:46:41;;;;;;;24.77;16.67;;;;;;;12.98;48.62;99526.28;1759291;81;21134;-59
2022/01/29 10:49:11;;;;;;;25.48;16.02;;;;;;;13.12;48.39;99530.37;1759530;81;21060;-60
2022/01/29 10:51:37;;;;;;;21.40;14.40;;;;;;;13.18;48.37;99525.55;1734852;81;21032;-59
2022/01/29 10:54:19;;;;;;;20.90;14.95;;;;;;;13.16;48.41;99530.22;1726458;81;21006;-59
2022/01/29 10:57:07;;;;;;;20.17;14.53;;;;;;;13.07;48.65;99523.69;1748062;81;21099;-58
2022/01/29 10:59:36;;;;;;;18.10;14.30;;;;;;;13.01;48.77;99527.16;1761875;81;21159;-58
2022/01/29 11:02:06;;;;;;;18.00;13.50;;;;;;;13.05;48.80;99526.50;1747106;81;20991;-62
2022/01/29 11:04:36;;;;;;;19.25;13.43;;;;;;;12.81;49.10;99528.66;1771749;80;21040;-62
2022/01/29 11:07:09;;;;;;;18.12;12.93;;;;;;;12.87;49.23;99529.89;1760580;80;21094;-58
2022/01/29 11:09:34;;;;;;;17.75;13.18;;;;;;;12.99;49.00;99523.95;1774586;80;21564;-58
2022/01/29 11:12:05;;;;;;;16.75;13.03;;;;;;;13.08;48.66;99525.28;1733978;82;21160;-57
2022/01/29 11:14:33;;;;;;;20.75;14.50;;;;;;;13.04;48.80;99528.04;1735521;82;21068;-62
2022/01/29 11:16:59;;;;;;;17.23;13.28;;;;;;;13.15;48.66;99529.42;1750214;81;20937;-58
2022/01/29 11:19:26;;;;;;;18.75;13.32;;;;;;;13.33;48.30;99528.67;1734955;82;21554;-59
2022/01/29 11:21:54;;;;;;;17.75;13.38;;;;;;;13.17;48.50;99532.33;1774867;80;20924;-62
2022/01/29 11:24:23;;;;;;;17.65;12.65;;;;;;;13.03;48.97;99531.65;1774507;80;21265;-58
2022/01/29 11:26:50;;;;;;;17.55;12.47;;;;;;;13.09;48.99;99529.48;1775250;80;21075;-59
2022/01/29 11:29:35;;;;;;;17.52;13.00;;;;;;;13.24;48.73;99533.09;1772778;80;20989;-57
2022/01/29 11:32:25;;;;;;;15.90;12.10;;;;;;;13.30;48.65;99527.00;1775367;80;20988;-62
2022/01/29 11:35:15;;;;;;;;;;;;;;;13.55;48.19;99527.69;1778758;80;20996;-58
2022/01/29 11:37:57;;;;;;;15.78;11.48;;;;;;;13.58;47.90;99535.63;1773131;80;21129;-62